Terminal Aerodrome Forecast
Issued by NWS

Home | Current Version | Previous Version | Graphics & Text | Print | Product List | Glossary On
Versions: 1 2 3 4 5 6 7 8 9 10 11 12 13 14 15 16 17
000
FTUS43 KPAH 101100
TAFCGI
TAF
KCGI 101127Z 1012/1112 00000KT P6SM FEW060 SCT250
     FM101400 05005KT P6SM SCT060
     FM110100 09002KT P6SM SCT250=

USA.gov is the U.S. government's official web portal to all federal, state and local government web resources and services.